Time;durP1;ratioP1;P1;durP2;ratioP2;P2;SDS_P1;SDS_P2;PMS_P1;PMS_P2;Temp;Humidity;BMP_temperature;BMP_pressure;BME280_temperature;BME280_humidity;BME280_pressure;Samples;Min_cycle;Max_cycle;Signal;HPM_P1;HPM_P2
2021/03/30 00:00:29;;;;;;;12.38;7.00;;;4.70;99.90;;;;;;5071422;28;20029;-72
2021/03/30 00:02:54;;;;;;;10.38;6.22;;;4.70;99.90;;;;;;5071320;28;20052;-72
2021/03/30 00:05:20;;;;;;;11.57;7.15;;;4.60;99.90;;;;;;5069819;28;20514;-72
2021/03/30 00:07:46;;;;;;;10.93;6.95;;;4.60;99.90;;;;;;5071093;28;20035;-72
2021/03/30 00:10:16;;;;;;;14.70;8.43;;;4.60;99.90;;;;;;5071057;28;20021;-72
2021/03/30 00:12:42;;;;;;;17.73;10.00;;;4.60;99.90;;;;;;5071192;28;20020;-72
2021/03/30 00:15:09;;;;;;;14.43;9.35;;;4.60;99.90;;;;;;5071015;28;20037;-72
2021/03/30 00:17:35;;;;;;;17.85;9.43;;;4.60;99.90;;;;;;5070626;28;20033;-72
2021/03/30 00:20:01;;;;;;;17.90;9.18;;;4.50;99.90;;;;;;5070827;28;20074;-72
2021/03/30 00:22:27;;;;;;;16.73;9.55;;;4.50;99.90;;;;;;5069570;28;20109;-72
2021/03/30 00:24:52;;;;;;;15.02;8.90;;;4.50;99.90;;;;;;5069524;28;20025;-72
2021/03/30 00:27:18;;;;;;;17.15;8.57;;;4.50;99.90;;;;;;5070643;28;20545;-72
2021/03/30 00:29:46;;;;;;;12.43;7.75;;;4.50;99.90;;;;;;5069866;28;20077;-72
2021/03/30 00:32:13;;;;;;;14.48;8.48;;;4.40;99.90;;;;;;5070750;28;20021;-72
2021/03/30 00:34:39;;;;;;;11.40;8.23;;;4.30;99.90;;;;;;5069437;28;20115;-72
2021/03/30 00:37:05;;;;;;;15.25;8.52;;;4.30;99.90;;;;;;5070456;28;20091;-72
2021/03/30 00:39:31;;;;;;;11.82;8.13;;;4.20;99.90;;;;;;5070515;28;20029;-72
2021/03/30 00:41:56;;;;;;;14.00;8.27;;;4.20;99.90;;;;;;5070749;28;20046;-72
2021/03/30 00:44:22;;;;;;;16.05;8.98;;;4.20;99.90;;;;;;5069216;28;20024;-72
2021/03/30 00:46:50;;;;;;;17.40;9.20;;;4.20;99.90;;;;;;5070568;28;20028;-72
2021/03/30 00:49:17;;;;;;;18.10;9.63;;;4.10;99.90;;;;;;5070633;28;20424;-72
2021/03/30 00:51:44;;;;;;;17.67;9.98;;;4.10;99.90;;;;;;5069186;28;20128;-72
2021/03/30 00:54:10;;;;;;;16.95;9.98;;;4.10;99.90;;;;;;5070396;28;20038;-72
2021/03/30 00:56:37;;;;;;;18.45;10.18;;;4.00;99.90;;;;;;5068914;28;20024;-72
2021/03/30 00:59:03;;;;;;;21.55;10.50;;;4.00;99.90;;;;;;5068791;28;20029;-72
2021/03/30 01:01:28;;;;;;;21.92;11.32;;;4.00;99.90;;;;;;5068829;28;20062;-72
2021/03/30 01:03:54;;;;;;;23.65;11.63;;;4.00;99.90;;;;;;5068806;28;20048;-72
2021/03/30 01:06:20;;;;;;;20.65;11.70;;;4.00;99.90;;;;;;5068522;28;20078;-72
2021/03/30 01:09:04;;;;;;;25.83;12.32;;;4.00;99.90;;;;;;5069843;28;20066;-72
2021/03/30 01:12:05;;;;;;;23.88;11.57;;;3.90;99.90;;;;;;5069901;28;20071;-72
2021/03/30 01:14:45;;;;;;;24.45;12.05;;;3.90;99.90;;;;;;5049384;28;20417;-72
2021/03/30 01:17:37;;;;;;;20.48;10.82;;;3.90;99.90;;;;;;5069568;28;20031;-72
2021/03/30 01:20:25;;;;;;;17.17;9.90;;;3.80;99.90;;;;;;5050335;28;20039;-72
2021/03/30 01:23:09;;;;;;;20.35;8.90;;;3.70;99.90;;;;;;5068959;28;20355;-72
2021/03/30 01:25:39;;;;;;;17.15;9.93;;;3.70;99.90;;;;;;5068243;28;20032;-72
2021/03/30 01:28:30;;;;;;;22.48;10.90;;;3.70;99.90;;;;;;5068222;28;20048;-72
2021/03/30 01:30:57;;;;;;;22.13;10.68;;;3.70;99.90;;;;;;5069686;28;20134;-72
2021/03/30 01:33:27;;;;;;;20.13;11.27;;;3.60;99.90;;;;;;5069511;28;20466;-72
2021/03/30 01:35:55;;;;;;;23.30;11.27;;;3.60;99.90;;;;;;5069845;28;20029;-72
2021/03/30 01:38:22;;;;;;;24.88;11.25;;;3.60;99.90;;;;;;5069463;28;20037;-72
2021/03/30 01:40:52;;;;;;;18.40;10.68;;;3.60;99.90;;;;;;5068057;28;20035;-72
2021/03/30 01:43:19;;;;;;;18.73;10.25;;;3.60;99.90;;;;;;5069344;28;20107;-72
2021/03/30 01:45:45;;;;;;;21.77;11.50;;;3.50;99.90;;;;;;5069690;28;20175;-72
2021/03/30 01:48:12;;;;;;;22.33;10.88;;;3.50;99.90;;;;;;5068037;28;20020;-72
2021/03/30 01:50:39;;;;;;;19.40;10.25;;;3.40;99.90;;;;;;5069304;28;20052;-72
2021/03/30 01:53:06;;;;;;;23.48;10.45;;;3.40;99.90;;;;;;5069288;28;20028;-72
2021/03/30 01:55:33;;;;;;;20.00;11.18;;;3.40;99.90;;;;;;5067997;28;20032;-72
2021/03/30 01:58:00;;;;;;;18.63;9.80;;;3.30;99.90;;;;;;5069243;28;20029;-72
2021/03/30 02:00:32;;;;;;;20.83;11.23;;;3.30;99.90;;;;;;5069196;28;20029;-72
2021/03/30 02:03:00;;;;;;;18.13;10.68;;;3.30;99.90;;;;;;5068365;28;20036;-72
2021/03/30 02:05:26;;;;;;;21.42;10.73;;;3.30;99.90;;;;;;5069168;28;20028;-72
2021/03/30 02:07:54;;;;;;;19.75;10.88;;;3.20;99.90;;;;;;5069103;28;20545;-72
2021/03/30 02:11:05;;;;;;;19.83;10.98;;;3.20;99.90;;;;;;5069122;28;20478;-72
2021/03/30 02:13:11;;;;;;;18.25;10.07;;;3.20;99.90;;;;;;5058401;28;20045;-72
2021/03/30 02:15:37;;;;;;;16.23;9.68;;;3.20;99.90;;;;;;5067851;28;20028;-72
2021/03/30 02:18:14;;;;;;;22.08;11.10;;;3.10;99.90;;;;;;5067559;28;20043;-72
2021/03/30 02:20:44;;;;;;;20.58;11.00;;;3.10;99.90;;;;;;5067812;28;20036;-72
2021/03/30 02:23:26;;;;;;;29.65;13.30;;;3.10;99.90;;;;;;5069429;28;20024;-72
2021/03/30 02:25:55;;;;;;;25.08;11.82;;;3.10;99.90;;;;;;5074362;28;20063;-72
2021/03/30 02:28:33;;;;;;;14.73;9.38;;;3.10;99.90;;;;;;5073801;28;20024;-72
2021/03/30 02:31:01;;;;;;;17.15;9.60;;;3.10;99.90;;;;;;5072382;28;20543;-72
2021/03/30 02:33:27;;;;;;;17.45;9.25;;;3.00;99.90;;;;;;5070520;28;20505;-72
2021/03/30 02:35:57;;;;;;;17.17;7.82;;;3.00;99.90;;;;;;5069623;28;20036;-72
2021/03/30 02:38:24;;;;;;;14.82;8.38;;;3.00;99.90;;;;;;5068706;28;20135;-72
2021/03/30 02:40:52;;;;;;;13.63;8.30;;;2.90;99.90;;;;;;5068315;28;20025;-72
2021/03/30 02:43:19;;;;;;;15.05;8.85;;;2.90;99.90;;;;;;5068514;28;20024;-72
2021/03/30 02:45:47;;;;;;;13.43;7.32;;;2.80;99.90;;;;;;5067542;28;20021;-72
2021/03/30 02:48:12;;;;;;;12.30;6.95;;;2.80;99.90;;;;;;5067594;28;20024;-72
2021/03/30 02:50:40;;;;;;;14.43;8.93;;;2.70;99.90;;;;;;5067428;28;20115;-72
2021/03/30 02:53:06;;;;;;;18.60;9.27;;;2.70;99.90;;;;;;5067585;28;20021;-72
2021/03/30 02:55:33;;;;;;;18.90;9.52;;;2.70;99.90;;;;;;5071159;28;20124;-72
2021/03/30 02:57:59;;;;;;;19.88;9.30;;;2.70;99.90;;;;;;5071170;28;20039;-72
2021/03/30 03:00:25;;;;;;;13.63;9.27;;;2.70;99.90;;;;;;5071081;28;20035;-72
2021/03/30 03:02:54;;;;;;;17.33;9.85;;;2.70;99.90;;;;;;5071088;28;20111;-72
2021/03/30 03:05:20;;;;;;;15.95;8.93;;;2.70;99.90;;;;;;5071009;28;20028;-72
2021/03/30 03:07:46;;;;;;;23.30;10.35;;;2.70;99.90;;;;;;5070885;28;20425;-72
2021/03/30 03:10:13;;;;;;;15.85;8.65;;;2.70;99.90;;;;;;5070850;28;20028;-72
2021/03/30 03:12:42;;;;;;;15.13;8.65;;;2.60;99.90;;;;;;5070893;28;20031;-72
2021/03/30 03:15:11;;;;;;;15.30;8.70;;;2.60;99.90;;;;;;5070816;28;20135;-71
2021/03/30 03:17:37;;;;;;;17.40;9.07;;;2.50;99.90;;;;;;5070633;28;20054;-72
2021/03/30 03:20:05;;;;;;;12.07;7.88;;;2.50;99.90;;;;;;5070829;28;20029;-72
2021/03/30 03:22:30;;;;;;;14.57;8.13;;;2.40;99.90;;;;;;5071068;28;20033;-72
2021/03/30 03:24:57;;;;;;;15.32;8.77;;;2.40;99.90;;;;;;5070574;28;20032;-72
2021/03/30 03:27:22;;;;;;;15.88;9.00;;;2.40;99.90;;;;;;5070585;28;20025;-72
2021/03/30 03:29:48;;;;;;;15.75;8.10;;;2.30;99.90;;;;;;5070698;28;20166;-72
2021/03/30 03:32:14;;;;;;;15.23;7.63;;;2.30;99.90;;;;;;5070554;28;20093;-72
2021/03/30 03:34:42;;;;;;;12.15;7.95;;;2.30;99.90;;;;;;5070481;28;20025;-72
2021/03/30 03:37:07;;;;;;;11.20;7.70;;;2.20;99.90;;;;;;5070407;28;20032;-72
2021/03/30 03:39:33;;;;;;;11.85;6.95;;;2.20;99.90;;;;;;5070505;28;20025;-72
2021/03/30 03:41:59;;;;;;;13.93;8.10;;;2.10;99.90;;;;;;5070319;28;20390;-72
2021/03/30 03:44:26;;;;;;;11.63;7.43;;;2.10;99.90;;;;;;5070257;28;20031;-72
2021/03/30 03:46:52;;;;;;;15.65;8.10;;;2.10;99.90;;;;;;5070190;28;20418;-72
2021/03/30 03:49:19;;;;;;;13.88;8.15;;;2.10;99.90;;;;;;5070254;28;20040;-72
2021/03/30 03:51:57;;;;;;;18.75;8.60;;;2.10;99.90;;;;;;5070245;28;20052;-72
2021/03/30 03:54:25;;;;;;;14.90;8.30;;;2.10;99.90;;;;;;5070189;28;20025;-72
2021/03/30 03:57:00;;;;;;;14.38;7.57;;;2.10;99.90;;;;;;5070066;28;20029;-72
2021/03/30 03:59:32;;;;;;;15.15;9.40;;;2.10;99.90;;;;;;5070072;28;20025;-72
2021/03/30 04:02:17;;;;;;;17.15;9.50;;;2.10;99.90;;;;;;5071218;28;20052;-72
2021/03/30 04:04:58;;;;;;;14.93;8.27;;;2.10;99.90;;;;;;5069719;28;20028;-72
2021/03/30 04:07:29;;;;;;;16.00;8.23;;;2.10;99.90;;;;;;5069893;28;20086;-72
2021/03/30 04:09:56;;;;;;;16.83;8.07;;;2.00;99.90;;;;;;5069947;28;20023;-72
2021/03/30 04:12:25;;;;;;;12.38;7.72;;;2.00;99.90;;;;;;5069761;28;20025;-72
2021/03/30 04:14:51;;;;;;;18.70;9.05;;;2.00;99.90;;;;;;5069758;28;20031;-72
2021/03/30 04:17:19;;;;;;;17.38;9.15;;;2.00;99.90;;;;;;5069800;28;20024;-72
2021/03/30 04:19:46;;;;;;;17.88;9.32;;;1.90;99.90;;;;;;5069862;28;20020;-73
2021/03/30 04:22:14;;;;;;;16.45;9.48;;;1.90;99.90;;;;;;5069823;28;20056;-71
2021/03/30 04:24:40;;;;;;;14.90;8.38;;;1.90;99.90;;;;;;5069616;28;20047;-72
2021/03/30 04:27:13;;;;;;;19.33;10.02;;;1.90;99.90;;;;;;5069405;28;20052;-72
2021/03/30 04:29:40;;;;;;;15.13;8.43;;;1.90;99.90;;;;;;5069462;28;20025;-72
2021/03/30 04:32:07;;;;;;;13.63;8.98;;;1.90;99.90;;;;;;5069398;28;20028;-72
2021/03/30 04:34:33;;;;;;;14.60;8.82;;;1.80;99.90;;;;;;5069325;28;20101;-72
2021/03/30 04:36:58;;;;;;;18.25;8.55;;;1.80;99.90;;;;;;5069422;28;20062;-71
2021/03/30 04:39:24;;;;;;;13.02;7.93;;;1.80;99.90;;;;;;5070265;28;20123;-72
2021/03/30 04:41:49;;;;;;;14.68;7.78;;;1.70;99.90;;;;;;5070632;28;20036;-72
2021/03/30 04:44:15;;;;;;;13.38;8.10;;;1.70;99.90;;;;;;5069817;28;20481;-72
2021/03/30 04:46:41;;;;;;;14.35;8.48;;;1.70;99.90;;;;;;5069401;28;20074;-72
2021/03/30 04:49:07;;;;;;;14.50;8.02;;;1.60;99.90;;;;;;5069716;28;20504;-71
2021/03/30 04:51:32;;;;;;;12.52;7.93;;;1.60;99.90;;;;;;5069450;28;20095;-71
2021/03/30 04:53:58;;;;;;;18.10;9.20;;;1.60;99.90;;;;;;5069562;28;20078;-72
2021/03/30 04:56:23;;;;;;;13.02;8.32;;;1.60;99.90;;;;;;5069714;28;20161;-72
2021/03/30 04:58:49;;;;;;;13.90;8.05;;;1.60;99.90;;;;;;5069352;28;20056;-73
2021/03/30 05:01:14;;;;;;;16.38;9.00;;;1.60;99.90;;;;;;5068954;28;20034;-72
2021/03/30 05:03:40;;;;;;;15.27;9.00;;;1.60;99.90;;;;;;5068796;28;20024;-72
2021/03/30 05:06:06;;;;;;;14.98;9.15;;;1.60;99.90;;;;;;5068727;28;20052;-72
2021/03/30 05:08:32;;;;;;;13.30;8.10;;;1.60;99.90;;;;;;5068805;28;20047;-72
2021/03/30 05:10:59;;;;;;;16.83;9.18;;;1.60;99.90;;;;;;5068794;28;20393;-71
2021/03/30 05:13:24;;;;;;;15.00;8.68;;;1.60;99.90;;;;;;5068712;28;20052;-72
2021/03/30 05:15:50;;;;;;;12.23;8.07;;;1.70;99.90;;;;;;5068191;28;20519;-72
2021/03/30 05:18:15;;;;;;;14.50;8.35;;;1.70;99.90;;;;;;5082607;23;20040;-72
2021/03/30 05:20:41;;;;;;;16.33;9.68;;;1.80;99.90;;;;;;5052188;28;20055;-73
2021/03/30 05:23:07;;;;;;;16.00;10.55;;;1.80;99.90;;;;;;5052148;28;20076;-72
2021/03/30 05:25:33;;;;;;;20.85;10.00;;;1.90;99.90;;;;;;5052066;28;20145;-72
2021/03/30 05:27:58;;;;;;;18.20;10.38;;;2.00;99.90;;;;;;5052017;28;20034;-72
2021/03/30 05:30:24;;;;;;;16.98;10.75;;;2.00;99.90;;;;;;5052028;28;20378;-70
2021/03/30 05:32:50;;;;;;;19.75;13.55;;;2.10;99.90;;;;;;5051844;28;20146;-72
2021/03/30 05:35:15;;;;;;;21.63;14.55;;;2.30;99.90;;;;;;5051891;28;20056;-72
2021/03/30 05:37:41;;;;;;;21.33;13.57;;;2.40;99.90;;;;;;5051876;28;20050;-72
2021/03/30 05:40:12;;;;;;;20.42;10.10;;;2.50;99.90;;;;;;5051804;28;20375;-72
2021/03/30 05:42:38;;;;;;;17.80;9.77;;;2.60;99.90;;;;;;5051825;28;20017;-71
2021/03/30 05:45:05;;;;;;;12.95;9.07;;;2.70;99.90;;;;;;5051650;28;20020;-73
2021/03/30 05:47:31;;;;;;;15.40;8.82;;;2.80;99.90;;;;;;5051912;28;20111;-73
2021/03/30 05:49:57;;;;;;;18.27;9.63;;;2.90;99.90;;;;;;5051698;28;20063;-73
2021/03/30 05:55:29;;;;;;;17.83;9.07;;;3.20;99.90;;;;;;5070214;28;20096;-73
2021/03/30 05:57:58;;;;;;;14.35;9.68;;;3.40;99.90;;;;;;5052218;28;20028;-73
2021/03/30 06:00:42;;;;;;;15.55;9.75;;;3.60;99.90;;;;;;5051837;28;20016;-73
2021/03/30 06:03:10;;;;;;;13.93;8.85;;;3.70;99.90;;;;;;5052267;28;20029;-73
2021/03/30 06:05:36;;;;;;;17.45;9.70;;;3.90;99.90;;;;;;5052445;28;20043;-73
2021/03/30 06:08:04;;;;;;;15.63;9.48;;;4.10;99.90;;;;;;5052492;28;20052;-73
2021/03/30 06:10:31;;;;;;;15.73;9.60;;;4.30;99.90;;;;;;5053434;28;20417;-72
2021/03/30 06:12:58;;;;;;;15.63;9.75;;;4.50;99.90;;;;;;5054209;28;20035;-74
2021/03/30 06:15:32;;;;;;;18.02;10.55;;;4.70;99.90;;;;;;5052983;28;20030;-73
2021/03/30 06:18:00;;;;;;;19.88;9.93;;;5.00;99.90;;;;;;5051952;28;20453;-73
2021/03/30 06:20:33;;;;;;;20.75;11.18;;;5.20;99.90;;;;;;5051570;28;20025;-73
2021/03/30 06:23:01;;;;;;;20.25;10.65;;;5.40;99.90;;;;;;5051790;28;20046;-73
2021/03/30 06:25:52;;;;;;;20.67;9.55;;;5.60;99.90;;;;;;5051142;28;20032;-73
2021/03/30 06:28:26;;;;;;;16.02;8.32;;;5.90;99.90;;;;;;5053372;28;20020;-72
2021/03/30 06:31:07;;;;;;;16.92;9.63;;;6.10;99.90;;;;;;5055592;28;20436;-73
2021/03/30 06:33:35;;;;;;;20.27;9.27;;;6.30;99.90;;;;;;5055227;28;20086;-72
2021/03/30 06:36:19;;;;;;;17.05;8.05;;;6.60;99.90;;;;;;5055139;28;20029;-72
2021/03/30 06:38:54;;;;;;;20.33;8.50;;;6.80;99.90;;;;;;5055039;28;20029;-73
2021/03/30 06:46:54;;;;;;;15.07;7.65;;;7.40;99.90;;;;;;5073094;28;20054;-72
2021/03/30 06:49:21;;;;;;;16.20;7.95;;;7.60;99.90;;;;;;5071496;28;20028;-72
2021/03/30 06:51:48;;;;;;;15.50;8.20;;;7.80;99.90;;;;;;5054745;28;20558;-73
2021/03/30 06:54:14;;;;;;;17.08;7.90;;;7.90;99.90;;;;;;5054873;28;20400;-72
2021/03/30 06:56:50;;;;;;;18.88;8.88;;;8.10;99.90;;;;;;5054885;28;20094;-73
2021/03/30 06:59:16;;;;;;;14.50;8.10;;;8.30;99.90;;;;;;5054413;28;20032;-73
2021/03/30 07:01:43;;;;;;;15.65;8.60;;;8.50;99.90;;;;;;5054706;28;20025;-73
2021/03/30 07:04:10;;;;;;;13.88;8.43;;;8.70;99.90;;;;;;5054615;28;20025;-73
2021/03/30 07:06:38;;;;;;;11.93;7.22;;;8.90;99.90;;;;;;5054529;28;20066;-72
2021/03/30 07:09:04;;;;;;;12.85;7.38;;;9.00;99.90;;;;;;5054449;28;20036;-72
2021/03/30 07:11:32;;;;;;;12.27;7.15;;;9.20;99.90;;;;;;5054601;28;20025;-73
2021/03/30 07:13:58;;;;;;;13.00;6.72;;;9.30;99.90;;;;;;5054472;28;20025;-73
2021/03/30 07:16:29;;;;;;;9.77;5.88;;;9.40;99.90;;;;;;5054358;28;20036;-73
2021/03/30 07:18:58;;;;;;;12.77;5.95;;;9.50;99.90;;;;;;5054252;28;20036;-73
2021/03/30 07:21:32;;;;;;;11.52;6.35;;;9.70;99.90;;;;;;5054340;28;20397;-73
2021/03/30 07:24:07;;;;;;;9.05;5.43;;;9.80;99.90;;;;;;5054404;28;20027;-73
2021/03/30 07:26:41;;;;;;;9.30;5.00;;;10.00;99.90;;;;;;5054191;28;20029;-73
2021/03/30 07:29:14;;;;;;;8.85;5.28;;;10.30;99.90;;;;;;5054197;28;20028;-73
2021/03/30 07:32:17;;;;;;;12.35;5.00;;;10.30;99.90;;;;;;5054167;28;20546;-73
2021/03/30 07:34:57;;;;;;;7.22;5.13;;;10.40;99.90;;;;;;5070725;28;20029;-73
2021/03/30 07:38:08;;;;;;;9.50;4.68;;;10.50;99.90;;;;;;5054046;28;20490;-73
2021/03/30 07:40:37;;;;;;;11.10;5.57;;;10.80;99.90;;;;;;4973860;28;20118;-73
2021/03/30 07:43:05;;;;;;;8.93;5.43;;;11.10;99.90;;;;;;4974355;28;20022;-73
2021/03/30 07:45:33;;;;;;;8.13;4.90;;;11.20;99.90;;;;;;5018610;28;20506;-73
2021/03/30 07:47:59;;;;;;;10.15;5.20;;;11.50;99.20;;;;;;5053776;28;20031;-73
2021/03/30 07:50:46;;;;;;;11.55;5.38;;;11.80;96.10;;;;;;5053792;28;20397;-73
2021/03/30 07:53:48;;;;;;;13.30;4.95;;;12.50;93.40;;;;;;5053844;28;20021;-73
2021/03/30 07:56:26;;;;;;;8.50;4.88;;;12.70;90.50;;;;;;5053724;28;20032;-73
2021/03/30 07:58:58;;;;;;;8.30;4.47;;;12.90;90.20;;;;;;5070227;28;20078;-73
2021/03/30 08:01:30;;;;;;;9.80;4.35;;;13.30;87.70;;;;;;5053694;28;20036;-73
2021/03/30 08:03:57;;;;;;;7.20;4.68;;;13.90;82.40;;;;;;5053567;28;20029;-73
2021/03/30 08:06:23;;;;;;;11.13;5.07;;;15.10;79.20;;;;;;5053405;28;20050;-73
2021/03/30 08:08:55;;;;;;;7.47;4.60;;;16.10;71.40;;;;;;5069913;28;20020;-73
2021/03/30 08:11:40;;;;;;;8.13;5.15;;;17.50;61.10;;;;;;5070153;28;20048;-74
2021/03/30 08:14:18;;;;;;;7.57;4.40;;;20.00;51.70;;;;;;5069968;28;20027;-73
2021/03/30 08:16:47;;;;;;;8.77;5.53;;;22.70;44.00;;;;;;5069930;28;20036;-74
2021/03/30 08:19:14;;;;;;;10.93;4.68;;;24.50;37.40;;;;;;5053039;28;20047;-74
2021/03/30 08:22:05;;;;;;;11.05;5.13;;;25.70;34.30;;;;;;5053127;28;20115;-74
2021/03/30 08:24:46;;;;;;;7.90;4.85;;;26.20;33.30;;;;;;5053150;28;20055;-74
2021/03/30 08:27:30;;;;;;;8.20;4.57;;;25.10;35.50;;;;;;5071337;28;20412;-74
2021/03/30 08:29:56;;;;;;;10.35;4.55;;;23.90;37.00;;;;;;5070960;28;20051;-74
2021/03/30 08:32:22;;;;;;;5.30;3.83;;;23.80;36.30;;;;;;5071193;28;20510;-74
2021/03/30 08:34:48;;;;;;;7.15;4.07;;;25.40;34.00;;;;;;5053046;28;20504;-75
2021/03/30 08:37:15;;;;;;;7.15;4.07;;;28.10;30.40;;;;;;5071044;28;20020;-74
2021/03/30 08:39:42;;;;;;;7.93;4.85;;;30.10;28.30;;;;;;5071191;28;20031;-74
2021/03/30 08:42:20;;;;;;;10.95;4.93;;;31.10;26.70;;;;;;5070847;28;20025;-74
2021/03/30 08:45:06;;;;;;;10.38;5.15;;;31.10;26.20;;;;;;5070989;28;20392;-74
2021/03/30 08:47:36;;;;;;;9.32;4.78;;;30.70;26.30;;;;;;5070935;28;20052;-74
2021/03/30 08:50:24;;;;;;;12.55;5.60;;;28.90;28.50;;;;;;5053125;28;20033;-74
2021/03/30 08:52:55;;;;;;;9.13;4.60;;;27.70;29.70;;;;;;5070465;28;20077;-74
2021/03/30 08:55:28;;;;;;;9.48;4.65;;;26.80;31.00;;;;;;5052746;28;20040;-74
2021/03/30 08:57:54;;;;;;;;;;;26.20;31.50;;;;;;5070922;28;20025;-74
2021/03/30 09:00:21;;;;;;;8.40;4.60;;;26.00;31.90;;;;;;5070437;28;19904;-74
2021/03/30 09:02:57;;;;;;;7.32;4.20;;;27.30;30.10;;;;;;5052444;28;20036;-73
2021/03/30 09:05:23;;;;;;;8.52;3.97;;;30.30;27.60;;;;;;5070525;28;20020;-75
2021/03/30 09:07:49;;;;;;;5.95;4.45;;;33.40;24.90;;;;;;5070246;28;20028;-74
2021/03/30 09:10:19;;;;;;;5.53;3.80;;;35.70;23.50;;;;;;5070175;28;20029;-75
2021/03/30 09:13:09;;;;;;;6.30;3.88;;;37.90;22.10;;;;;;5107958;27;20135;-74
2021/03/30 09:15:35;;;;;;;6.43;4.00;;;39.20;20.50;;;;;;5107615;28;20473;-75
2021/03/30 09:18:01;;;;;;;7.30;4.10;;;40.40;19.60;;;;;;5105956;28;20123;-72
2021/03/30 09:20:29;;;;;;;5.95;3.90;;;40.60;18.60;;;;;;5105839;28;20034;-72
2021/03/30 09:22:59;;;;;;;6.15;4.10;;;40.70;18.70;;;;;;5105694;28;20393;-72
2021/03/30 09:25:37;;;;;;;5.82;3.53;;;40.70;18.40;;;;;;5107437;28;20026;-72
2021/03/30 09:28:03;;;;;;;7.07;3.95;;;41.50;18.20;;;;;;5106992;28;20042;-73
2021/03/30 09:30:29;;;;;;;3.95;3.28;;;41.80;17.60;;;;;;5107121;28;20469;-73
2021/03/30 09:32:56;;;;;;;5.07;3.35;;;42.60;17.40;;;;;;5105774;28;20024;-71
2021/03/30 09:35:29;;;;;;;7.70;3.83;;;43.50;17.50;;;;;;5107049;28;20102;-73
2021/03/30 09:37:58;;;;;;;7.80;3.72;;;43.80;16.40;;;;;;5107193;28;20024;-73
2021/03/30 09:40:39;;;;;;;8.07;4.68;;;43.80;16.50;;;;;;5106719;28;20019;-73
2021/03/30 09:43:12;;;;;;;5.28;3.78;;;43.90;16.00;;;;;;5105446;28;20024;-72
2021/03/30 09:45:40;;;;;;;7.43;4.07;;;43.40;16.50;;;;;;5105441;28;20020;-72
2021/03/30 09:48:08;;;;;;;5.97;4.20;;;43.80;16.10;;;;;;5105151;28;20023;-73
2021/03/30 09:50:39;;;;;;;5.93;3.42;;;44.40;16.00;;;;;;5106615;28;20028;-73
2021/03/30 09:53:07;;;;;;;7.13;4.70;;;45.10;15.60;;;;;;5105601;28;20024;-73
2021/03/30 09:55:45;;;;;;;5.82;3.85;;;45.20;15.00;;;;;;5106467;28;20070;-73
2021/03/30 09:58:18;;;;;;;6.68;3.17;;;45.60;15.00;;;;;;5105395;28;20020;-73
2021/03/30 10:00:52;;;;;;;4.28;2.20;;;45.90;14.80;;;;;;5105008;28;20096;-74
2021/03/30 10:03:21;;;;;;;3.50;2.65;;;46.30;14.00;;;;;;5106507;28;20020;-73
2021/03/30 10:05:46;;;;;;;4.20;3.28;;;47.10;14.40;;;;;;5106119;28;20023;-73
2021/03/30 10:08:19;;;;;;;4.60;3.85;;;47.70;13.90;;;;;;5105886;28;20094;-73
2021/03/30 10:10:50;;;;;;;6.55;3.97;;;47.50;13.70;;;;;;5106138;28;20039;-73
2021/03/30 10:13:23;;;;;;;3.80;3.30;;;46.80;13.80;;;;;;5104834;28;20473;-73
2021/03/30 10:15:50;;;;;;;7.55;4.13;;;47.10;14.30;;;;;;5105929;28;20031;-73
2021/03/30 10:18:16;;;;;;;4.07;2.70;;;47.70;13.40;;;;;;5104611;28;20027;-73
2021/03/30 10:20:47;;;;;;;5.68;4.32;;;47.80;14.10;;;;;;5105832;28;20385;-73
2021/03/30 10:23:17;;;;;;;4.22;3.83;;;48.50;13.30;;;;;;5098081;28;20020;-73
2021/03/30 10:25:43;;;;;;;5.40;4.07;;;49.80;13.40;;;;;;5092263;28;20036;-73
2021/03/30 10:28:10;;;;;;;5.53;4.38;;;50.10;12.80;;;;;;5090776;28;20020;-73
2021/03/30 10:30:44;;;;;;;4.35;3.45;;;50.30;12.90;;;;;;5090750;28;20477;-74
2021/03/30 10:33:17;;;;;;;5.97;4.80;;;50.40;13.40;;;;;;5090898;28;20028;-74
2021/03/30 10:35:43;;;;;;;4.65;3.22;;;50.20;13.00;;;;;;5090818;28;20027;-73
2021/03/30 10:38:09;;;;;;;5.63;4.60;;;50.50;12.70;;;;;;5091939;28;20016;-74
2021/03/30 10:40:40;;;;;;;5.55;4.28;;;50.60;12.50;;;;;;5092247;28;20027;-74
2021/03/30 10:43:23;;;;;;;5.65;5.05;;;51.10;12.70;;;;;;5090702;28;20449;-73
2021/03/30 10:45:50;;;;;;;4.90;4.40;;;49.90;12.20;;;;;;5091897;28;20515;-73
2021/03/30 10:48:16;;;;;;;5.22;4.43;;;49.40;12.70;;;;;;5092127;28;20043;-74
2021/03/30 10:50:43;;;;;;;5.68;4.85;;;49.70;12.70;;;;;;5091983;28;20028;-74
2021/03/30 10:53:09;;;;;;;6.07;4.60;;;49.90;12.70;;;;;;5091753;28;20511;-73
2021/03/30 10:55:35;;;;;;;6.55;5.00;;;50.50;13.00;;;;;;5090428;28;20505;-74
2021/03/30 10:58:05;;;;;;;4.93;4.40;;;50.60;12.70;;;;;;5090298;28;20045;-73
2021/03/30 11:00:31;;;;;;;5.90;4.80;;;51.40;12.60;;;;;;5090360;28;20020;-74
2021/03/30 11:02:58;;;;;;;8.45;5.95;;;51.60;12.80;;;;;;5090635;28;20473;-74
2021/03/30 11:05:25;;;;;;;6.63;4.55;;;51.10;12.10;;;;;;5090191;28;20497;-74
2021/03/30 11:07:50;;;;;;;8.18;6.30;;;51.40;12.50;;;;;;5090081;28;20038;-73
2021/03/30 11:10:16;;;;;;;6.63;5.15;;;50.60;12.30;;;;;;5090112;28;20081;-74
2021/03/30 11:12:42;;;;;;;4.22;3.83;;;51.20;12.60;;;;;;5089936;28;20050;-74
2021/03/30 11:15:09;;;;;;;6.05;4.63;;;50.70;12.80;;;;;;5090031;28;20058;-75
2021/03/30 11:17:35;;;;;;;6.38;5.50;;;51.30;12.90;;;;;;5091576;28;20054;-74
2021/03/30 11:20:01;;;;;;;3.95;3.53;;;51.60;12.60;;;;;;5089795;28;20028;-74
2021/03/30 11:22:27;;;;;;;8.35;5.82;;;51.90;12.80;;;;;;5089851;28;20115;-74
2021/03/30 11:24:59;;;;;;;5.57;4.97;;;50.80;12.30;;;;;;5089845;28;20123;-74
2021/03/30 11:27:26;;;;;;;7.50;6.80;;;51.90;12.30;;;;;;5089776;28;20107;-75
2021/03/30 11:30:02;;;;;;;6.35;5.20;;;50.60;12.70;;;;;;5089791;28;20027;-74
2021/03/30 11:35:28;;;;;;;8.73;6.03;;;50.60;12.70;;;;;;5081459;28;20035;-74
2021/03/30 11:38:04;;;;;;;6.35;5.10;;;50.70;12.20;;;;;;5089585;28;20016;-74
2021/03/30 11:40:30;;;;;;;7.60;6.30;;;50.30;12.30;;;;;;5089600;28;20031;-74
2021/03/30 11:42:56;;;;;;;4.60;4.18;;;49.90;12.50;;;;;;5089442;28;20020;-74
2021/03/30 11:45:21;;;;;;;6.50;5.90;;;50.30;13.00;;;;;;5089474;28;20024;-74
2021/03/30 11:47:47;;;;;;;5.13;4.38;;;50.20;12.40;;;;;;5089278;28;20522;-73
2021/03/30 11:50:13;;;;;;;5.53;4.50;;;49.90;12.80;;;;;;5089350;28;20115;-74
2021/03/30 11:52:38;;;;;;;6.13;5.30;;;50.70;12.50;;;;;;5089303;28;20073;-74
2021/03/30 11:55:05;;;;;;;7.20;6.45;;;50.70;12.40;;;;;;5089246;28;20028;-74
2021/03/30 11:57:31;;;;;;;8.35;5.57;;;48.30;12.50;;;;;;5089172;28;20020;-73
2021/03/30 11:59:57;;;;;;;5.95;4.00;;;47.80;13.10;;;;;;5089143;28;20065;-74
2021/03/30 12:02:22;;;;;;;6.68;4.05;;;48.60;13.30;;;;;;5089087;28;20028;-74
2021/03/30 12:04:48;;;;;;;5.00;4.50;;;49.40;12.80;;;;;;5089074;28;20027;-74
2021/03/30 12:07:13;;;;;;;5.13;4.38;;;50.00;12.60;;;;;;5088981;28;20440;-74
2021/03/30 12:09:39;;;;;;;6.05;4.88;;;48.30;12.70;;;;;;5089030;28;20020;-73
2021/03/30 12:12:05;;;;;;;8.48;6.32;;;48.30;12.80;;;;;;5088672;28;20119;-73
2021/03/30 12:14:31;;;;;;;7.40;5.43;;;47.90;13.10;;;;;;5088827;28;20405;-73
2021/03/30 12:16:57;;;;;;;7.93;6.13;;;47.70;12.90;;;;;;5088752;28;20549;-74
2021/03/30 12:19:23;;;;;;;6.50;5.72;;;47.70;13.40;;;;;;5088641;28;20056;-73
2021/03/30 12:21:48;;;;;;;8.13;6.78;;;45.90;13.90;;;;;;5088665;28;20024;-73
2021/03/30 12:24:14;;;;;;;5.05;4.55;;;44.80;14.50;;;;;;5088692;28;20483;-73
2021/03/30 12:26:40;;;;;;;5.45;4.88;;;45.40;14.30;;;;;;5088658;28;20032;-73
2021/03/30 12:29:06;;;;;;;7.07;4.53;;;47.00;14.10;;;;;;5088543;28;20024;-73
2021/03/30 12:31:32;;;;;;;6.47;5.45;;;48.60;13.70;;;;;;5088405;28;20072;-73
2021/03/30 12:33:58;;;;;;;4.75;4.05;;;49.40;13.10;;;;;;5088611;28;20107;-73
2021/03/30 12:36:24;;;;;;;4.40;3.80;;;49.70;13.40;;;;;;5088545;28;20507;-74
2021/03/30 12:38:50;;;;;;;7.50;4.75;;;50.10;13.10;;;;;;5088415;28;20059;-74
2021/03/30 12:41:16;;;;;;;8.40;6.03;;;49.90;12.70;;;;;;5088949;28;20066;-73
2021/03/30 12:43:41;;;;;;;11.43;6.25;;;49.40;12.60;;;;;;5088390;28;20033;-73
2021/03/30 12:46:07;;;;;;;9.60;4.80;;;47.60;13.00;;;;;;5088176;28;20085;-73
2021/03/30 12:48:33;;;;;;;9.13;5.45;;;47.40;14.10;;;;;;5088210;28;20546;-73
2021/03/30 12:50:58;;;;;;;6.45;5.53;;;47.80;13.80;;;;;;5088277;28;20024;-74
2021/03/30 12:53:24;;;;;;;7.00;6.15;;;46.70;13.00;;;;;;5088315;28;20081;-74
2021/03/30 12:55:49;;;;;;;6.00;3.88;;;47.80;13.00;;;;;;5088264;28;20392;-74
2021/03/30 12:58:15;;;;;;;6.40;5.47;;;47.10;13.50;;;;;;5088164;28;20016;-75
2021/03/30 13:00:41;;;;;;;3.80;3.42;;;46.50;13.90;;;;;;5089533;28;20069;-74
2021/03/30 13:03:06;;;;;;;5.90;4.78;;;46.50;14.10;;;;;;5088181;28;20024;-74
2021/03/30 13:05:32;;;;;;;6.88;4.72;;;46.10;13.30;;;;;;5088095;28;20020;-74
2021/03/30 13:07:58;;;;;;;3.90;3.50;;;46.80;13.00;;;;;;5088054;28;20370;-74